Latest Weather Observations for Mackay Airport

IDQ60801

Issued at 9:05 am EST Tuesday 2 September 2014 (issued every 30 minutes, with the page automatically refreshed every 10 minutes)

About weather observations | Map of weather stations | Latest weather observations for QLD | Other Formats
Station Details ID: 033045 Name: MACKAY AERO Lat: -21.17 Lon: 149.18 Height: 4.7 m
Data from the previous 72 hours. | See also: Recent months at Mackay Airport
Date/Time
EST
Temp
°C
App
Temp
°C
Dew
Point
Rel
Hum
%
Delta-T
°C
Wind Press
QNH
hPa
Press
MSL
hPa
Rain
since 9 am
mm
Dir
 
Spd
km/h
Gust
km/h
Spd
kts
Gust
kts
02/09:00am 20.0 18.8 14.1 69 3.4 W 13 17 7 9 1018.6 1018.6 0.0
02/08:30am 18.2 16.9 13.7 75 2.6 W 13 15 7 8 1018.6 1018.6 0.0
02/08:00am 16.1 14.7 12.1 77 2.2 W 11 15 6 8 1018.4 1018.4 0.0
02/07:30am 14.3 12.1 10.9 80 1.8 W 13 17 7 9 1018.1 1018.1 0.0
02/07:00am 12.9 11.9 11.0 88 1.0 W 7 9 4 5 1018.2 1018.2 0.0
02/06:30am 10.8 9.5 9.2 90 0.8 W 6 9 3 5 1018.0 1018.0 0.0
02/06:00am 11.3 9.9 9.7 90 0.8 W 7 9 4 5 1018.0 1018.0 0.0
02/05:30am 11.6 9.9 9.9 89 0.9 W 9 13 5 7 1017.8 1017.8 0.0
02/05:00am 12.0 10.7 10.1 88 1.0 W 7 11 4 6 1017.7 1017.7 0.0
02/04:30am 12.0 10.4 10.2 89 0.9 W 9 11 5 6 1017.6 1017.6 0.0
02/04:00am 11.5 10.2 9.9 90 0.8 W 7 11 4 6 1017.6 1017.6 0.0
02/03:30am 11.8 10.2 10.2 90 0.8 W 9 11 5 6 1017.5 1017.5 0.0
02/03:00am 12.2 11.0 10.4 89 0.9 W 7 11 4 6 1018.0 1018.0 0.0
02/02:30am 11.6 9.6 10.2 91 0.7 WSW 11 13 6 7 1018.2 1018.2 0.0
02/02:00am 12.5 11.0 10.6 88 1.0 W 9 15 5 8 1018.0 1018.0 0.0
02/01:30am 12.4 11.3 10.5 88 1.0 W 7 9 4 5 1018.1 1018.1 0.0
02/01:00am 13.2 12.7 11.9 92 0.7 W 6 9 3 5 1018.6 1018.6 0.0
02/12:30am 12.3 10.5 10.7 90 0.8 W 11 13 6 7 1018.8 1018.8 0.0
02/12:00am 13.0 12.3 12.1 94 0.5 W 7 9 4 5 1018.5 1018.5 0.0
 
Date/Time
EST
Temp
°C
App
Temp
°C
Dew
Point
Rel
Hum
%
Delta-T
°C
Wind Press
QNH
hPa
Press
MSL
hPa
Rain
since 9 am
mm
Dir
 
Spd
km/h
Gust
km/h
Spd
kts
Gust
kts
01/11:30pm 12.3 11.2 10.7 90 0.8 NNE 7 9 4 5 1018.6 1018.6 0.0
01/11:00pm 14.0 13.6 12.9 93 0.6 NNE 7 9 4 5 1018.5 1018.5 0.0
01/10:30pm 13.4 12.5 11.3 87 1.1 NNE 7 9 4 5 1018.8 1018.8 0.0
01/10:00pm 13.7 12.6 12.1 90 0.9 NNE 9 11 5 6 1018.6 1018.6 0.0
01/09:30pm 15.2 15.0 13.6 90 0.9 NNE 7 9 4 5 1018.5 1018.5 0.0
01/09:00pm 14.7 14.0 13.1 90 0.9 NNE 9 9 5 5 1018.5 1018.5 0.0
01/08:30pm 14.6 14.1 11.9 84 1.5 NNE 6 9 3 5 1018.5 1018.5 0.0
01/08:00pm 15.8 16.9 13.5 86 1.3 CALM 0 2 0 1 1018.3 1018.3 0.0
01/07:30pm 16.6 17.9 14.1 85 1.4 CALM 0 0 0 0 1018.0 1018.0 0.0
01/07:00pm 17.8 17.8 14.1 79 2.1 NNE 7 9 4 5 1017.8 1017.8 0.0
01/06:30pm 19.1 19.0 13.9 72 3.0 NE 7 9 4 5 1017.5 1017.5 0.0
01/06:00pm 19.8 19.4 14.0 69 3.3 NE 9 13 5 7 1017.2 1017.2 0.0
01/05:30pm 20.8 19.7 14.2 66 3.8 ENE 13 15 7 8 1017.1 1017.1 0.0
01/05:00pm 21.6 20.1 14.3 63 4.3 ENE 15 20 8 11 1016.6 1016.6 0.0
01/04:30pm 21.8 19.8 13.9 61 4.6 ENE 17 20 9 11 1016.5 1016.5 0.0
01/04:00pm 22.0 20.3 14.6 63 4.3 ENE 17 20 9 11 1016.6 1016.6 0.0
01/03:30pm 22.2 20.3 15.1 64 4.2 E 19 22 10 12 1016.7 1016.7 0.0
01/03:00pm 22.2 20.1 14.6 62 4.5 E 19 24 10 13 1016.8 1016.8 0.0
01/02:30pm 22.6 21.3 15.7 65 4.1 E 17 24 9 13 1016.9 1016.9 0.0
01/02:00pm 22.8 21.2 15.1 62 4.6 E 17 20 9 11 1017.4 1017.4 0.0
01/01:30pm 22.6 21.6 14.7 61 4.7 E 13 19 7 10 1017.8 1017.8 0.0
01/01:00pm 22.4 21.0 14.5 61 4.6 ESE 15 19 8 10 1018.3 1018.3 0.0
01/12:30pm 22.2 20.9 13.8 59 4.9 E 13 20 7 11 1018.7 1018.7 0.0
01/12:00pm 22.2 21.0 14.1 60 4.7 ESE 13 19 7 10 1019.2 1019.2 0.0
01/11:30am 22.5 21.2 13.8 58 5.1 ESE 13 20 7 11 1019.4 1019.4 0.0
01/11:00am 22.6 21.0 13.9 58 5.1 ESE 15 20 8 11 1019.2 1019.2 0.0
01/10:30am 22.9 21.6 13.7 56 5.4 ESE 13 19 7 10 1019.6 1019.6 0.0
01/10:00am 22.5 22.1 14.1 59 4.9 ESE 9 17 5 9 1020.0 1020.0 0.0
01/09:30am 21.3 20.6 14.2 64 4.1 SW 11 17 6 9 1020.2 1020.2 0.0
01/09:00am 19.5 19.1 15.2 76 2.5 WSW 11 15 6 8 1020.3 1020.3 0.0
01/08:30am 16.9 16.1 14.0 83 1.6 WSW 11 13 6 7 1020.0 1020.0 0.0
01/08:00am 15.4 14.8 13.4 88 1.1 W 9 13 5 7 1019.9 1019.9 0.0
01/07:30am 13.8 12.8 12.4 91 0.8 W 9 13 5 7 1019.4 1019.4 0.0
01/07:00am 11.8 10.8 10.9 94 0.5 W 7 11 4 6 1019.2 1019.2 0.0
01/06:30am 10.2 8.4 9.4 95 0.4 W 9 11 5 6 1018.8 1018.8 0.0
01/06:00am 9.6 7.6 8.8 95 0.4 W 9 13 5 7 1018.5 1018.5 0.0
01/05:30am 10.2 8.7 9.3 94 0.4 W 7 9 4 5 1017.9 1017.9 0.0
01/05:00am 11.2 9.6 10.3 94 0.5 W 9 13 5 7 1017.8 1017.8 0.0
01/04:30am 11.5 9.9 10.2 92 0.7 W 9 13 5 7 1017.8 1017.8 0.0
01/04:00am 12.1 10.0 11.2 94 0.5 W 13 17 7 9 1017.9 1017.9 0.0
01/03:30am 11.0 10.0 10.4 96 0.3 W 6 11 3 6 1017.7 1017.7 0.0
01/03:00am 11.3 10.2 10.5 95 0.4 W 7 11 4 6 1018.0 1018.0 0.0
01/02:30am 11.5 10.5 10.9 96 0.3 W 7 9 4 5 1018.0 1018.0 0.0
01/02:00am 11.8 10.9 11.2 96 0.3 W 7 9 4 5 1018.2 1018.2 0.0
01/01:30am 12.1 10.9 11.6 97 0.3 W 9 11 5 6 1018.2 1018.2 0.0
01/01:00am 12.0 10.7 11.4 96 0.3 W 9 11 5 6 1018.3 1018.3 0.0
01/12:30am 12.3 11.1 11.7 96 0.3 SW 9 11 5 6 1018.6 1018.6 0.0
01/12:00am 11.8 10.1 11.2 96 0.3 SSW 11 13 6 7 1018.6 1018.6 0.0
 
Date/Time
EST
Temp
°C
App
Temp
°C
Dew
Point
Rel
Hum
%
Delta-T
°C
Wind Press
QNH
hPa
Press
MSL
hPa
Rain
since 9 am
mm
Dir
 
Spd
km/h
Gust
km/h
Spd
kts
Gust
kts
31/11:30pm 12.0 10.7 11.1 94 0.5 SSW 9 13 5 7 1018.6 1018.6 0.0
31/11:00pm 13.9 13.2 13.1 95 0.4 SW 9 9 5 5 1018.7 1018.7 0.0
31/10:30pm 14.0 13.7 13.4 96 0.3 W 7 9 4 5 1018.8 1018.8 0.0
31/10:00pm 14.3 15.3 13.3 94 0.6 CALM 0 0 0 0 1018.9 1018.9 0.0
31/09:30pm 14.5 14.5 13.5 94 0.6 W 6 7 3 4 1018.8 1018.8 0.0
31/09:00pm 14.2 13.7 12.8 91 0.8 W 7 9 4 5 1018.7 1018.7 0.0
31/08:30pm 14.8 14.3 12.8 88 1.1 W 7 9 4 5 1018.3 1018.3 0.0
31/08:00pm 16.9 17.2 14.9 88 1.2 NNE 7 9 4 5 1018.1 1018.1 0.0
31/07:30pm 17.1 17.8 14.6 85 1.4 NE 4 7 2 4 1017.8 1017.8 0.0
31/07:00pm 17.4 17.7 14.5 83 1.7 NE 6 9 3 5 1017.5 1017.5 0.0
31/06:30pm 18.5 18.7 14.8 79 2.1 NE 7 11 4 6 1017.1 1017.1 0.0
31/06:00pm 19.5 19.6 15.4 77 2.4 NE 9 13 5 7 1016.7 1016.7 0.0
31/05:30pm 20.4 19.3 15.4 73 3.0 ENE 15 19 8 10 1016.4 1016.4 0.0
31/05:00pm 20.9 19.3 15.9 73 3.0 ENE 19 22 10 12 1016.2 1016.2 0.0
31/04:30pm 21.7 20.1 16.0 70 3.4 ENE 19 24 10 13 1015.9 1015.9 0.0
31/04:00pm 22.1 19.9 15.0 64 4.2 E 20 24 11 13 1015.8 1015.8 0.0
31/03:30pm 22.1 20.5 15.9 68 3.7 E 19 24 10 13 1015.7 1015.7 0.0
31/03:00pm 22.1 19.8 15.7 67 3.8 E 22 26 12 14 1015.8 1015.8 0.0
31/02:30pm 22.3 20.6 16.3 69 3.6 E 20 24 11 13 1016.2 1016.2 0.0
31/02:00pm 22.3 20.3 15.4 65 4.1 E 20 24 11 13 1016.7 1016.7 0.0
31/01:30pm 22.4 20.7 16.2 68 3.8 E 20 24 11 13 1017.0 1017.0 0.0
31/01:00pm 22.3 20.5 16.1 68 3.7 E 20 24 11 13 1017.4 1017.4 0.0
31/12:30pm 22.0 20.1 15.8 68 3.7 E 20 24 11 13 1017.9 1017.9 0.0
31/12:00pm 22.1 20.1 15.5 66 3.9 E 20 24 11 13 1018.2 1018.2 0.0
31/11:30am 22.0 20.9 16.3 70 3.4 ESE 17 22 9 12 1018.6 1018.6 0.0
31/11:00am 21.9 21.1 16.0 69 3.5 ESE 15 22 8 12 1019.0 1019.0 0.0
31/10:30am 21.9 20.9 15.7 68 3.7 E 15 19 8 10 1019.2 1019.2 0.0
31/10:00am 21.4 20.9 14.8 66 3.9 SE 11 17 6 9 1019.5 1019.5 0.0
31/09:30am 20.9 20.4 12.6 59 4.7 SSW 7 9 4 5 1019.7 1019.7 0.0
31/09:00am 19.0 17.7 11.3 61 4.2 SW 9 11 5 6 1019.7 1019.7 0.0
31/08:30am 17.4 16.7 11.9 70 3.0 W 7 11 4 6 1019.6 1019.6 0.0
31/08:00am 15.2 13.7 10.6 74 2.4 W 9 11 5 6 1019.4 1019.4 0.0
31/07:30am 13.3 10.9 10.1 81 1.7 W 13 17 7 9 1019.3 1019.3 0.0
31/07:00am 11.9 10.2 10.0 88 1.0 W 9 15 5 8 1018.8 1018.8 0.0
31/06:30am 9.6 8.0 8.2 91 0.7 W 6 7 3 4 1018.5 1018.5 0.0
31/06:00am 9.3 7.5 8.1 92 0.6 WSW 7 9 4 5 1018.0 1018.0 0.0
31/05:30am 9.9 7.9 8.7 92 0.6 WSW 9 11 5 6 1017.8 1017.8 0.0
31/05:00am 10.2 7.8 8.5 89 0.8 W 11 13 6 7 1017.4 1017.4 0.0
31/04:30am 11.0 9.7 9.1 88 0.9 W 6 11 3 6 1017.3 1017.3 0.0
31/04:00am 11.4 9.7 9.8 90 0.8 W 9 15 5 8 1017.2 1017.2 0.0
31/03:30am 10.9 9.1 9.3 90 0.8 W 9 13 5 7 1017.2 1017.2 0.0
31/03:00am 10.8 8.9 9.1 89 0.8 WNW 9 13 5 7 1017.3 1017.3 0.0
31/02:30am 11.1 8.9 9.5 90 0.8 W 11 13 6 7 1017.6 1017.6 0.0
31/02:00am 10.9 8.8 9.7 92 0.6 WSW 11 11 6 6 1018.0 1018.0 0.0
31/01:30am 11.1 9.4 9.7 91 0.7 WSW 9 11 5 6 1018.2 1018.2 0.0
31/01:00am 11.2 9.3 9.1 87 1.0 WSW 9 11 5 6 1018.5 1018.5 0.0
31/12:30am 11.7 10.0 9.8 88 1.0 WSW 9 11 5 6 1018.6 1018.6 0.0
31/12:00am 11.7 10.4 9.9 89 0.9 W 7 11 4 6 1018.8 1018.8 0.0
 
Date/Time
EST
Temp
°C
App
Temp
°C
Dew
Point
Rel
Hum
%
Delta-T
°C
Wind Press
QNH
hPa
Press
MSL
hPa
Rain
since 9 am
mm
Dir
 
Spd
km/h
Gust
km/h
Spd
kts
Gust
kts
30/11:30pm 11.9 10.8 9.8 87 1.1 WSW 6 7 3 4 1019.0 1019.0 0.0
30/11:00pm 12.4 11.2 10.3 87 1.1 WSW 7 9 4 5 1019.1 1019.1 0.0
30/10:30pm 12.9 11.7 10.4 85 1.3 SW 7 11 4 6 1019.2 1019.2 0.0
30/10:00pm 14.1 14.5 11.3 83 1.5 CALM 0 6 0 3 1019.3 1019.3 0.0
30/09:30pm 13.6 11.8 10.9 84 1.4 SSW 11 13 6 7 1019.1 1019.1 0.0
30/09:00pm 14.1 12.7 10.9 81 1.7 NNE 9 11 5 6 1019.2 1019.2 0.0
30/08:30pm 15.4 14.3 12.0 80 1.8 NNE 9 9 5 5 1019.1 1019.1 0.0
30/08:00pm 16.7 15.9 13.0 79 2.1 NNE 9 13 5 7 1018.9 1018.9 0.0
30/07:30pm 16.8 16.4 12.5 76 2.4 NNE 6 6 3 3 1018.5 1018.5 0.0
30/07:00pm 17.4 17.0 12.5 73 2.7 NE 6 9 3 5 1018.2 1018.2 0.0
30/06:30pm 19.0 18.2 13.0 68 3.4 NE 9 11 5 6 1017.9 1017.9 0.0
30/06:00pm 19.9 18.1 12.2 61 4.3 ENE 13 17 7 9 1017.6 1017.6 0.0
30/05:30pm 20.9 18.6 11.8 56 5.1 E 15 20 8 11 1017.1 1017.1 0.0
30/05:00pm 21.5 18.6 12.4 56 5.1 E 19 26 10 14 1016.9 1016.9 0.0
30/04:30pm 22.0 18.9 12.3 54 5.5 E 20 26 11 14 1017.0 1017.0 0.0
30/04:00pm 22.3 18.8 12.3 53 5.7 E 22 28 12 15 1017.0 1017.0 0.0
30/03:30pm 23.0 20.3 14.6 59 5.0 E 22 26 12 14 1017.0 1017.0 0.0
30/03:00pm 22.8 20.5 14.6 60 4.8 ESE 20 26 11 14 1017.0 1017.0 0.0
30/02:30pm 22.9 19.5 13.7 56 5.4 ESE 24 28 13 15 1017.2 1017.2 0.0
30/02:00pm 22.6 19.8 14.2 59 4.9 ESE 22 28 12 15 1017.5 1017.5 0.0
30/01:30pm 23.5 21.3 14.8 58 5.2 ESE 20 26 11 14 1017.8 1017.8 0.0
30/01:00pm 22.7 20.0 14.5 60 4.8 ESE 22 28 12 15 1018.3 1018.3 0.0
30/12:30pm 22.7 19.8 15.0 61 4.6 ESE 24 30 13 16 1018.5 1018.5 0.0
30/12:00pm 23.6 20.9 15.6 61 4.8 ESE 24 30 13 16 1019.2 1019.2 0.0
30/11:30am 23.0 19.6 14.8 60 4.9 SE 26 32 14 17 1019.6 1019.6 0.0
30/11:00am 22.9 20.6 15.7 64 4.3 SE 22 30 12 16 1020.2 1020.2 0.0
30/10:30am 22.7 20.8 15.8 65 4.2 SE 20 26 11 14 1020.7 1020.7 0.0
30/10:00am 21.7 19.3 15.3 67 3.8 SSE 22 28 12 15 1021.2 1021.2 0.0
30/09:30am 20.7 20.0 16.3 76 2.6 S 15 20 8 11 1021.6 1021.6 0.0

Other Formats:

Comma delimited format used in spreadsheet applications
http://www.bom.gov.au/fwo/IDQ60801/IDQ60801.95367.axf

JavaScript Object Notation format (JSON) in row-major order
http://www.bom.gov.au/fwo/IDQ60801/IDQ60801.95367.json